createdAt,value
2017-11-11T00:00:10.908Z,6.50
2017-11-11T00:02:38.382Z,6.37
2017-11-11T00:05:06.650Z,6.97
2017-11-11T00:07:34.101Z,6.50
2017-11-11T00:10:01.597Z,6.90
2017-11-11T00:12:29.092Z,6.17
2017-11-11T00:14:56.587Z,6.60
2017-11-11T00:17:24.822Z,7.27
2017-11-11T00:19:52.284Z,6.40
2017-11-11T00:22:19.772Z,6.00
2017-11-11T00:24:47.241Z,5.90
2017-11-11T00:27:15.528Z,6.50
2017-11-11T00:29:43.755Z,6.90
2017-11-11T00:32:11.272Z,8.87
2017-11-11T00:34:39.578Z,8.30
2017-11-11T00:37:07.895Z,7.70
2017-11-11T00:39:35.457Z,7.23
2017-11-11T00:42:02.924Z,6.70
2017-11-11T00:44:31.238Z,7.90
2017-11-11T00:46:58.713Z,8.37
2017-11-11T00:49:26.502Z,7.30
2017-11-11T00:51:53.960Z,7.30
2017-11-11T00:54:21.543Z,5.90
2017-11-11T00:56:49.025Z,7.10
2017-11-11T00:59:17.266Z,7.77
2017-11-11T01:01:44.724Z,6.43
2017-11-11T01:04:12.185Z,8.70
2017-11-11T01:06:39.695Z,7.53
2017-11-11T01:09:07.173Z,7.07
2017-11-11T01:11:34.874Z,6.90
2017-11-11T01:14:02.337Z,5.80
2017-11-11T01:16:29.886Z,7.23
2017-11-11T01:18:57.353Z,7.73
2017-11-11T01:21:26.328Z,8.20
2017-11-11T01:23:53.805Z,8.43
2017-11-11T01:26:21.267Z,7.80
2017-11-11T01:28:49.618Z,7.30
2017-11-11T01:31:17.997Z,7.67
2017-11-11T01:33:45.538Z,7.43
2017-11-11T01:36:13.018Z,7.60
2017-11-11T01:38:40.496Z,7.00
2017-11-11T01:41:08.719Z,9.00
2017-11-11T01:43:36.185Z,9.33
2017-11-11T01:46:03.656Z,8.03
2017-11-11T01:48:31.120Z,8.97
2017-11-11T01:50:58.623Z,9.30
2017-11-11T01:53:26.848Z,7.07
2017-11-11T01:55:54.328Z,7.77
2017-11-11T01:58:21.812Z,7.90
2017-11-11T02:00:50.096Z,8.00
2017-11-11T02:03:18.320Z,7.40
2017-11-11T02:05:45.803Z,7.73
2017-11-11T02:08:13.277Z,7.90
2017-11-11T02:10:41.524Z,9.00
2017-11-11T02:13:09.332Z,8.73
2017-11-11T02:15:36.787Z,7.57
2017-11-11T02:18:05.021Z,7.47
2017-11-11T02:20:32.522Z,7.97
2017-11-11T02:23:00.751Z,10.23
2017-11-11T02:25:28.207Z,6.63
2017-11-11T02:27:55.753Z,7.60
2017-11-11T02:30:23.231Z,7.50
2017-11-11T02:32:50.748Z,7.20
2017-11-11T02:35:18.996Z,7.97
2017-11-11T02:37:46.573Z,7.97
2017-11-11T02:40:14.862Z,7.70
2017-11-11T02:42:43.967Z,7.93
2017-11-11T02:45:11.432Z,8.30
2017-11-11T02:47:38.902Z,7.23
2017-11-11T02:50:06.379Z,7.97
2017-11-11T02:52:33.839Z,7.70
2017-11-11T02:55:01.324Z,9.80
2017-11-11T02:57:28.811Z,7.70
2017-11-11T02:59:57.071Z,8.80
2017-11-11T03:02:25.300Z,9.07
2017-11-11T03:04:52.797Z,7.93
2017-11-11T03:07:21.048Z,9.10
2017-11-11T03:09:48.560Z,9.17
2017-11-11T03:12:16.798Z,9.70
2017-11-11T03:14:44.294Z,8.53
2017-11-11T03:17:12.541Z,9.97
2017-11-11T03:19:40.010Z,8.50
2017-11-11T03:22:07.498Z,10.03
2017-11-11T03:24:35.049Z,9.00
2017-11-11T03:27:03.324Z,9.70
2017-11-11T03:29:31.550Z,8.10
2017-11-11T03:31:59.036Z,9.60
2017-11-11T03:34:26.495Z,10.40
2017-11-11T03:36:53.957Z,11.53
2017-11-11T03:39:21.430Z,9.33
2017-11-11T03:41:49.852Z,12.13
2017-11-11T03:44:17.321Z,9.20
2017-11-11T03:46:44.859Z,10.20
2017-11-11T03:49:12.339Z,8.47
2017-11-11T03:51:39.804Z,8.60
2017-11-11T03:54:07.304Z,8.97
2017-11-11T03:56:35.535Z,8.80
2017-11-11T03:59:03.052Z,9.60
2017-11-11T04:01:31.269Z,8.77
2017-11-11T04:03:58.742Z,7.33
2017-11-11T04:06:26.214Z,8.47
2017-11-11T04:08:53.991Z,8.07
2017-11-11T04:11:22.238Z,7.63
2017-11-11T04:13:49.783Z,7.17
2017-11-11T04:16:17.259Z,10.73
2017-11-11T04:18:44.724Z,6.87
2017-11-11T04:21:12.210Z,8.80
2017-11-11T04:23:39.677Z,6.80
2017-11-11T04:26:07.911Z,8.20
2017-11-11T04:28:36.196Z,7.50
2017-11-11T04:31:03.743Z,8.80
2017-11-11T04:33:31.216Z,8.17
2017-11-11T04:35:58.847Z,5.77
2017-11-11T04:38:26.344Z,6.40
2017-11-11T04:40:54.570Z,6.37
2017-11-11T04:43:22.024Z,6.63
2017-11-11T04:45:49.518Z,5.73
2017-11-11T04:48:16.974Z,5.73
2017-11-11T04:50:44.718Z,7.27
2017-11-11T04:53:12.203Z,7.57
2017-11-11T04:55:39.679Z,5.77
2017-11-11T04:58:07.152Z,5.10
2017-11-11T05:00:35.392Z,6.20
2017-11-11T05:03:02.929Z,5.63
2017-11-11T05:05:31.226Z,6.43
2017-11-11T05:07:58.747Z,5.50
2017-11-11T05:10:26.243Z,5.67
2017-11-11T05:12:53.948Z,6.30
2017-11-11T05:15:22.263Z,6.93
2017-11-11T05:17:49.844Z,5.83
2017-11-11T05:20:17.312Z,5.80
2017-11-11T05:22:44.887Z,5.70
2017-11-11T05:25:12.356Z,4.40
2017-11-11T05:27:40.582Z,4.90
2017-11-11T05:30:08.264Z,5.20
2017-11-11T05:32:35.731Z,5.00
2017-11-11T05:35:03.549Z,5.53
2017-11-11T05:37:31.084Z,5.40
2017-11-11T05:39:59.321Z,5.20
2017-11-11T05:42:26.788Z,5.13
2017-11-11T05:44:54.277Z,5.33
2017-11-11T05:47:22.525Z,7.30
2017-11-11T05:49:50.048Z,5.60
2017-11-11T05:52:17.530Z,5.67
2017-11-11T05:54:45.009Z,5.40
2017-11-11T05:57:12.472Z,4.93
2017-11-11T05:59:40.457Z,5.83
2017-11-11T06:02:08.732Z,5.70
2017-11-11T06:04:36.986Z,5.33
2017-11-11T06:07:04.459Z,5.67
2017-11-11T06:09:32.705Z,5.93
2017-11-11T06:12:00.183Z,4.97
2017-11-11T06:14:27.681Z,5.37
2017-11-11T06:16:55.168Z,5.10
2017-11-11T06:19:22.639Z,5.97
2017-11-11T06:21:50.396Z,5.43
2017-11-11T06:24:17.884Z,6.33
2017-11-11T06:26:45.350Z,5.27
2017-11-11T06:29:12.836Z,4.60
2017-11-11T06:31:41.066Z,5.20
2017-11-11T06:34:08.550Z,5.37
2017-11-11T06:36:36.779Z,5.50
2017-11-11T06:39:04.418Z,6.10
2017-11-11T06:41:31.905Z,4.63
2017-11-11T06:43:59.652Z,5.53
2017-11-11T06:46:27.128Z,3.73
2017-11-11T06:48:54.589Z,4.80
2017-11-11T06:51:22.093Z,3.97
2017-11-11T06:53:50.367Z,5.47
2017-11-11T06:56:18.612Z,5.10
2017-11-11T06:58:46.095Z,5.80
2017-11-11T07:01:13.564Z,5.30
2017-11-11T07:03:41.837Z,4.27
2017-11-11T07:06:10.403Z,5.20
2017-11-11T07:08:37.868Z,4.03
2017-11-11T07:11:06.136Z,4.37
2017-11-11T07:13:33.646Z,4.70
2017-11-11T07:16:01.119Z,3.80
2017-11-11T07:18:28.588Z,5.37
2017-11-11T07:20:56.183Z,5.20
2017-11-11T07:23:23.648Z,5.07
2017-11-11T07:25:51.944Z,5.37
2017-11-11T07:28:20.894Z,5.37
2017-11-11T07:30:48.404Z,4.50
2017-11-11T07:33:16.732Z,6.07
2017-11-11T07:35:44.252Z,7.67
2017-11-11T07:38:11.732Z,6.83
2017-11-11T07:40:39.245Z,5.83
2017-11-11T07:43:07.499Z,5.20
2017-11-11T07:45:35.231Z,6.10
2017-11-11T07:48:02.717Z,5.30
2017-11-11T07:50:30.984Z,6.00
2017-11-11T07:52:58.557Z,5.80
2017-11-11T07:55:26.052Z,6.23
2017-11-11T07:57:53.561Z,5.30
2017-11-11T08:00:21.064Z,6.00
2017-11-11T08:02:49.344Z,5.43
2017-11-11T08:05:17.689Z,5.50
2017-11-11T08:07:45.161Z,6.17
2017-11-11T08:10:13.460Z,6.23
2017-11-11T08:12:41.684Z,6.97
2017-11-11T08:15:09.192Z,6.60
2017-11-11T08:17:36.680Z,6.17
2017-11-11T08:20:04.163Z,6.33
2017-11-11T08:22:31.659Z,6.70
2017-11-11T08:24:59.940Z,6.33
2017-11-11T08:27:28.181Z,7.63
2017-11-11T08:29:55.690Z,9.10
2017-11-11T08:32:23.146Z,7.60
2017-11-11T08:34:50.607Z,8.37
2017-11-11T08:37:18.179Z,9.90
2017-11-11T08:39:45.684Z,10.20
2017-11-11T08:42:13.167Z,10.87
2017-11-11T08:44:41.007Z,7.40
2017-11-11T08:47:08.487Z,8.17
2017-11-11T08:49:36.708Z,7.47
2017-11-11T08:52:04.680Z,8.40
2017-11-11T08:54:32.340Z,6.97
2017-11-11T08:57:00.081Z,6.67
2017-11-11T08:59:28.316Z,7.90
2017-11-11T09:01:56.776Z,6.60
2017-11-11T09:04:24.401Z,9.33
2017-11-11T09:06:53.305Z,7.90
2017-11-11T09:09:20.782Z,7.17
2017-11-11T09:11:48.303Z,7.77
2017-11-11T09:14:15.799Z,9.30
2017-11-11T09:16:43.412Z,8.50
2017-11-11T09:19:10.883Z,8.47
2017-11-11T09:21:39.154Z,8.43
2017-11-11T09:24:07.624Z,9.20
2017-11-11T09:26:46.871Z,8.07
2017-11-11T09:29:15.375Z,7.33
2017-11-11T09:31:42.881Z,9.07
2017-11-11T09:34:11.118Z,7.60
2017-11-11T09:36:38.688Z,7.97
2017-11-11T09:39:07.289Z,8.63
2017-11-11T09:41:35.447Z,7.13
2017-11-11T09:44:03.183Z,7.03
2017-11-11T09:46:31.695Z,7.73
2017-11-11T09:48:59.485Z,8.00
2017-11-11T09:51:27.053Z,7.50
2017-11-11T09:53:54.742Z,7.80
2017-11-11T09:56:23.019Z,7.07
2017-11-11T09:58:50.788Z,6.37
2017-11-11T10:01:19.484Z,6.70
2017-11-11T10:03:46.948Z,6.17
2017-11-11T10:06:14.741Z,6.07
2017-11-11T10:08:42.491Z,6.50
2017-11-11T10:11:11.403Z,5.90
2017-11-11T10:13:38.901Z,5.87
2017-11-11T10:16:07.676Z,6.50
2017-11-11T10:18:35.162Z,5.63
2017-11-11T10:21:02.690Z,6.07
2017-11-11T10:23:30.370Z,5.57
2017-11-11T10:25:58.684Z,5.70
2017-11-11T10:28:26.200Z,4.13
2017-11-11T10:30:55.092Z,3.10
2017-11-11T10:33:22.661Z,4.20
2017-11-11T10:35:50.141Z,3.87
2017-11-11T10:38:18.371Z,4.40
2017-11-11T10:40:45.931Z,4.90
2017-11-11T10:43:13.414Z,5.60
2017-11-11T10:45:40.897Z,5.63
2017-11-11T10:48:09.149Z,5.27
2017-11-11T10:50:36.715Z,4.67
2017-11-11T10:53:04.970Z,5.17
2017-11-11T10:55:32.428Z,5.03
2017-11-11T10:58:00.631Z,7.30
2017-11-11T11:00:28.120Z,6.53
2017-11-11T11:02:56.159Z,6.37
2017-11-11T11:05:24.760Z,7.73
2017-11-11T11:07:53.126Z,6.50
2017-11-11T11:10:21.360Z,7.30
2017-11-11T11:12:49.019Z,5.70
2017-11-11T11:15:16.492Z,5.77
2017-11-11T11:17:44.010Z,5.30
2017-11-11T11:20:11.502Z,6.10
2017-11-11T11:22:39.099Z,5.60
2017-11-11T11:25:07.472Z,6.00
2017-11-11T11:27:34.969Z,4.77
2017-11-11T11:30:03.194Z,5.57
2017-11-11T11:32:30.709Z,5.23
2017-11-11T11:34:58.207Z,5.00
2017-11-11T11:37:25.677Z,5.43
2017-11-11T11:39:53.155Z,4.97
2017-11-11T11:42:20.620Z,5.17
2017-11-11T11:44:48.960Z,5.03
2017-11-11T11:47:17.216Z,5.63
2017-11-11T11:49:44.712Z,5.90
2017-11-11T11:52:12.177Z,6.67
2017-11-11T11:54:39.718Z,5.80
2017-11-11T11:57:07.198Z,5.50
2017-11-11T11:59:34.761Z,5.37
2017-11-11T12:02:02.312Z,5.90
2017-11-11T12:04:29.993Z,6.20
2017-11-11T12:06:57.513Z,5.70
2017-11-11T12:09:24.988Z,6.63
2017-11-11T12:11:52.492Z,6.00
2017-11-11T12:14:19.985Z,6.30
2017-11-11T12:16:47.467Z,6.47
2017-11-11T12:19:14.945Z,7.60
2017-11-11T12:21:42.420Z,7.23
2017-11-11T12:24:10.795Z,7.87
2017-11-11T12:26:39.101Z,8.40
2017-11-11T12:29:06.604Z,9.40
2017-11-11T12:31:34.093Z,9.50
2017-11-11T12:34:01.609Z,9.73
2017-11-11T12:36:29.076Z,8.83
2017-11-11T12:38:56.592Z,10.17
2017-11-11T12:41:24.203Z,9.00
2017-11-11T12:43:51.721Z,10.30
2017-11-11T12:46:19.224Z,10.83
2017-11-11T12:48:46.696Z,10.27
2017-11-11T12:51:14.996Z,12.00
2017-11-11T12:53:43.246Z,11.20
2017-11-11T12:56:10.892Z,12.67
2017-11-11T12:58:38.376Z,11.60
2017-11-11T13:01:05.881Z,12.23
2017-11-11T13:03:33.378Z,14.17
2017-11-11T13:06:00.949Z,14.50
2017-11-11T13:08:29.444Z,12.93
2017-11-11T13:10:57.693Z,12.40
2017-11-11T13:13:26.893Z,11.10
2017-11-11T13:15:54.470Z,13.77
2017-11-11T13:18:22.730Z,13.00
2017-11-11T13:20:50.249Z,12.60
2017-11-11T13:23:18.459Z,12.93
2017-11-11T13:25:45.973Z,10.80
2017-11-11T13:28:13.465Z,11.30
2017-11-11T13:30:41.765Z,13.80
2017-11-11T13:33:09.550Z,11.60
2017-11-11T13:35:37.105Z,13.50
2017-11-11T13:38:04.590Z,12.50
2017-11-11T13:40:32.829Z,14.03
2017-11-11T13:43:00.382Z,13.23
2017-11-11T13:45:27.853Z,12.10
2017-11-11T13:47:55.413Z,12.80
2017-11-11T13:50:23.716Z,11.93
2017-11-11T13:52:51.943Z,12.97
2017-11-11T13:55:19.440Z,11.70
2017-11-11T13:57:46.979Z,13.07
2017-11-11T14:00:16.049Z,11.60
2017-11-11T14:02:43.514Z,11.87
2017-11-11T14:05:10.992Z,11.67
2017-11-11T14:07:39.261Z,11.63
2017-11-11T14:10:06.803Z,12.03
2017-11-11T14:12:34.553Z,10.73
2017-11-11T14:15:02.052Z,15.10
2017-11-11T14:17:30.406Z,13.47
2017-11-11T14:19:58.250Z,14.10
2017-11-11T14:22:25.757Z,12.60
2017-11-11T14:24:53.300Z,12.03
2017-11-11T14:27:20.788Z,13.33
2017-11-11T14:29:48.334Z,12.70
2017-11-11T14:32:15.965Z,14.17
2017-11-11T14:34:43.488Z,12.97
2017-11-11T14:37:12.038Z,13.77
2017-11-11T14:39:39.608Z,13.60
2017-11-11T14:42:07.101Z,15.97
2017-11-11T14:44:35.657Z,15.80
2017-11-11T14:47:03.335Z,14.63
2017-11-11T14:49:30.878Z,11.97
2017-11-11T14:51:58.374Z,13.80
2017-11-11T14:54:25.927Z,12.40
2017-11-11T14:56:53.384Z,13.07
2017-11-11T14:59:22.359Z,11.40
2017-11-11T15:01:49.829Z,18.23
2017-11-11T15:04:18.156Z,22.20
2017-11-11T15:06:45.824Z,12.10
2017-11-11T15:09:13.317Z,15.37
2017-11-11T15:11:40.810Z,19.63
2017-11-11T15:14:09.050Z,19.20
2017-11-11T15:16:36.593Z,19.60
2017-11-11T15:19:04.712Z,18.67
2017-11-11T15:21:32.464Z,15.93
2017-11-11T15:24:00.715Z,18.33
2017-11-11T15:26:28.200Z,20.30
2017-11-11T15:28:56.486Z,22.03
2017-11-11T15:31:24.939Z,19.87
2017-11-11T15:33:52.411Z,19.03
2017-11-11T15:36:20.760Z,20.73
2017-11-11T15:38:48.254Z,22.50
2017-11-11T15:41:16.508Z,20.20
2017-11-11T15:43:44.023Z,24.53
2017-11-11T15:46:11.511Z,21.10
2017-11-11T15:48:39.026Z,21.30
2017-11-11T15:51:06.665Z,24.20
2017-11-11T15:53:34.902Z,24.60
2017-11-11T15:56:02.376Z,26.33
2017-11-11T15:58:29.859Z,20.63
2017-11-11T16:00:57.402Z,22.37
2017-11-11T16:03:24.956Z,21.77
2017-11-11T16:05:52.440Z,22.43
2017-11-11T16:08:20.816Z,20.43
2017-11-11T16:10:49.072Z,23.83
2017-11-11T16:13:16.559Z,21.33
2017-11-11T16:15:44.973Z,20.63
2017-11-11T16:18:12.433Z,18.90
2017-11-11T16:20:39.932Z,21.90
2017-11-11T16:23:07.664Z,27.17
2017-11-11T16:25:35.701Z,24.60
2017-11-11T16:28:03.977Z,36.73
2017-11-11T16:30:31.534Z,41.00
2017-11-11T16:32:59.815Z,23.87
2017-11-11T16:35:27.375Z,28.13
2017-11-11T16:37:54.912Z,27.67
2017-11-11T16:40:23.291Z,28.80
2017-11-11T16:42:50.797Z,30.97
2017-11-11T16:45:18.406Z,30.70
2017-11-11T16:47:45.896Z,27.07
2017-11-11T16:50:13.402Z,34.63
2017-11-11T16:52:40.876Z,37.93
2017-11-11T16:55:09.252Z,36.73
2017-11-11T16:57:36.931Z,30.40
2017-11-11T17:00:05.236Z,30.60
2017-11-11T17:02:32.961Z,37.60
2017-11-11T17:05:00.532Z,24.27
2017-11-11T17:07:28.222Z,28.57
2017-11-11T17:09:55.748Z,29.00
2017-11-11T17:12:23.242Z,34.23
2017-11-11T17:14:50.745Z,36.57
2017-11-11T17:17:18.263Z,30.50
2017-11-11T17:19:45.749Z,30.57
2017-11-11T17:22:13.305Z,34.03
2017-11-11T17:24:40.906Z,36.87
2017-11-11T17:27:09.220Z,32.57
2017-11-11T17:29:36.791Z,35.90
2017-11-11T17:32:04.288Z,32.23
2017-11-11T17:34:31.869Z,34.97
2017-11-11T17:37:00.194Z,45.80
2017-11-11T17:39:27.947Z,53.10
2017-11-11T17:41:56.605Z,40.00
2017-11-11T17:44:24.936Z,41.70
2017-11-11T17:46:52.527Z,48.70
2017-11-11T17:49:20.876Z,34.37
2017-11-11T17:51:48.516Z,38.70
2017-11-11T17:54:15.998Z,39.87
2017-11-11T17:56:43.545Z,40.53
2017-11-11T17:59:11.067Z,42.07
2017-11-11T18:01:39.347Z,42.40
2017-11-11T18:04:06.828Z,46.77
2017-11-11T18:06:34.330Z,50.70
2017-11-11T18:09:01.841Z,47.20
2017-11-11T18:11:29.319Z,43.27
2017-11-11T18:13:56.872Z,46.27
2017-11-11T18:16:24.336Z,46.27
2017-11-11T18:18:51.844Z,46.60
2017-11-11T18:21:20.857Z,44.60
2017-11-11T18:23:49.112Z,44.60
2017-11-11T18:26:16.657Z,46.57
2017-11-11T18:28:44.189Z,49.40
2017-11-11T18:31:12.341Z,49.37
2017-11-11T18:33:40.947Z,56.17
2017-11-11T18:36:08.496Z,57.10
2017-11-11T18:38:36.005Z,45.40
2017-11-11T18:41:03.668Z,39.17
2017-11-11T18:43:31.254Z,29.70
2017-11-11T18:45:59.652Z,28.23
2017-11-11T18:48:27.643Z,20.90
2017-11-11T18:50:55.334Z,23.13
2017-11-11T18:53:23.067Z,20.43
2017-11-11T18:55:50.684Z,19.40
2017-11-11T18:58:18.222Z,22.30
2017-11-11T19:00:46.555Z,23.83
2017-11-11T19:03:14.070Z,20.93
2017-11-11T19:05:42.452Z,21.50
2017-11-11T19:08:10.170Z,16.97
2017-11-11T19:10:37.683Z,20.73
2017-11-11T19:13:06.662Z,17.40
2017-11-11T19:15:34.208Z,19.50
2017-11-11T19:18:01.847Z,18.43
2017-11-11T19:20:29.495Z,20.10
2017-11-11T19:22:57.087Z,22.50
2017-11-11T19:25:24.969Z,29.50
2017-11-11T19:27:54.268Z,30.80
2017-11-11T19:30:21.879Z,35.50
2017-11-11T19:32:49.389Z,36.70
2017-11-11T19:35:17.020Z,41.17
2017-11-11T19:37:44.950Z,39.70
2017-11-11T19:40:13.285Z,41.37
2017-11-11T19:42:40.974Z,43.87
2017-11-11T19:45:08.510Z,43.30
2017-11-11T19:47:36.220Z,46.30
2017-11-11T19:50:03.759Z,44.80
2017-11-11T19:52:31.384Z,47.00
2017-11-11T19:54:59.505Z,42.40
2017-11-11T19:57:28.231Z,43.47
2017-11-11T19:59:55.751Z,46.27
2017-11-11T20:02:24.310Z,46.80
2017-11-11T20:04:52.788Z,49.30
2017-11-11T20:07:20.313Z,72.27
2017-11-11T20:09:49.642Z,72.50
2017-11-11T20:12:17.296Z,59.63
2017-11-11T20:14:44.885Z,51.70
2017-11-11T20:17:14.072Z,50.07
2017-11-11T20:19:41.558Z,47.93
2017-11-11T20:22:09.037Z,43.93
2017-11-11T20:24:37.577Z,47.80
2017-11-11T20:27:05.150Z,51.63
2017-11-11T20:29:33.393Z,50.77
2017-11-11T20:32:01.153Z,52.30
2017-11-11T20:34:28.744Z,48.50
2017-11-11T20:36:56.268Z,50.07
2017-11-11T20:39:23.835Z,48.87
2017-11-11T20:41:51.309Z,50.57
2017-11-11T20:44:18.865Z,44.37
2017-11-11T20:46:46.350Z,53.47
2017-11-11T20:49:14.191Z,44.40
2017-11-11T20:51:41.775Z,45.97
2017-11-11T20:54:09.312Z,47.40
2017-11-11T20:56:36.947Z,52.77
2017-11-11T20:59:05.386Z,45.93
2017-11-11T21:01:34.403Z,53.07
2017-11-11T21:04:01.883Z,55.73
2017-11-11T21:06:29.372Z,59.93
2017-11-11T21:08:56.893Z,52.40
2017-11-11T21:11:25.339Z,50.00
2017-11-11T21:13:53.650Z,50.57
2017-11-11T21:16:22.010Z,46.00
2017-11-11T21:18:49.510Z,48.07
2017-11-11T21:21:17.160Z,50.23
2017-11-11T21:23:44.841Z,48.87
2017-11-11T21:26:12.367Z,50.47
2017-11-11T21:28:40.722Z,48.00
2017-11-11T21:31:08.345Z,49.60
2017-11-11T21:33:35.873Z,46.83
2017-11-11T21:36:04.266Z,50.80
2017-11-11T21:38:31.747Z,49.67
2017-11-11T21:41:03.819Z,46.20
2017-11-11T21:43:31.391Z,45.47
2017-11-11T21:45:59.078Z,46.73
2017-11-11T21:48:26.609Z,48.50
2017-11-11T21:50:54.099Z,48.17
2017-11-11T21:53:21.925Z,45.20
2017-11-11T21:55:49.491Z,45.63
2017-11-11T21:58:16.993Z,46.70
2017-11-11T22:00:44.799Z,50.87
2017-11-11T22:03:12.538Z,44.87
2017-11-11T22:05:41.774Z,49.97
2017-11-11T22:08:09.288Z,42.20
2017-11-11T22:10:37.553Z,47.20
2017-11-11T22:13:05.029Z,45.80
2017-11-11T22:15:33.345Z,51.73
2017-11-11T22:18:01.113Z,47.17
2017-11-11T22:20:28.601Z,42.80
2017-11-11T22:22:56.561Z,47.13
2017-11-11T22:25:25.057Z,49.00
2017-11-11T22:27:52.529Z,47.80
2017-11-11T22:30:21.074Z,54.63
2017-11-11T22:32:48.548Z,48.77
2017-11-11T22:35:16.101Z,57.17
2017-11-11T22:37:43.596Z,49.60
2017-11-11T22:40:11.857Z,52.17
2017-11-11T22:42:39.696Z,55.33
2017-11-11T22:45:07.171Z,48.60
2017-11-11T22:47:34.655Z,46.77
2017-11-11T22:50:02.936Z,46.63
2017-11-11T22:52:30.513Z,45.67
2017-11-11T22:54:57.981Z,40.70
2017-11-11T22:57:25.514Z,38.97
2017-11-11T22:59:52.983Z,39.80
2017-11-11T23:02:21.290Z,38.20
2017-11-11T23:04:48.769Z,40.03
2017-11-11T23:07:17.149Z,41.00
2017-11-11T23:09:44.657Z,40.30
2017-11-11T23:12:13.105Z,42.67
2017-11-11T23:14:40.843Z,42.17
2017-11-11T23:17:08.331Z,40.80
2017-11-11T23:19:35.840Z,36.47
2017-11-11T23:22:03.345Z,37.00
2017-11-11T23:24:30.874Z,37.43
2017-11-11T23:26:58.373Z,38.40
2017-11-11T23:29:25.995Z,37.00
2017-11-11T23:31:53.468Z,39.60
2017-11-11T23:34:20.989Z,36.30
2017-11-11T23:36:48.451Z,35.87
2017-11-11T23:39:15.992Z,36.17
2017-11-11T23:41:44.247Z,37.67
2017-11-11T23:44:12.091Z,37.13
2017-11-11T23:46:39.563Z,36.30
2017-11-11T23:49:07.248Z,33.30
2017-11-11T23:51:34.734Z,33.73
2017-11-11T23:54:02.265Z,35.07
2017-11-11T23:56:29.751Z,33.90
2017-11-11T23:58:57.304Z,39.30
